createdAt,value
2019-05-10T00:00:41.473Z,1.00
2019-05-10T00:03:27.845Z,0.78
2019-05-10T00:06:14.441Z,1.20
2019-05-10T00:08:48.131Z,1.12
2019-05-10T00:11:23.355Z,1.00
2019-05-10T00:14:09.521Z,0.90
2019-05-10T00:16:37.976Z,1.10
2019-05-10T00:19:06.553Z,1.10
2019-05-10T00:21:35.241Z,1.02
2019-05-10T00:24:03.703Z,1.00
2019-05-10T00:26:32.086Z,1.07
2019-05-10T00:29:00.487Z,0.90
2019-05-10T00:31:29.749Z,1.05
2019-05-10T00:33:58.468Z,1.00
2019-05-10T00:36:26.852Z,1.10
2019-05-10T00:38:55.518Z,1.10
2019-05-10T00:41:23.898Z,0.98
2019-05-10T00:43:52.575Z,1.10
2019-05-10T00:46:21.270Z,1.15
2019-05-10T00:48:49.676Z,1.05
2019-05-10T00:51:18.065Z,0.95
2019-05-10T00:53:46.453Z,1.17
2019-05-10T00:56:14.848Z,0.88
2019-05-10T00:58:43.241Z,1.25
2019-05-10T01:01:11.711Z,1.00
2019-05-10T01:03:40.096Z,1.00
2019-05-10T01:06:08.849Z,0.85
2019-05-10T01:08:37.199Z,1.00
2019-05-10T01:11:05.595Z,0.85
2019-05-10T01:13:36.397Z,0.95
2019-05-10T01:16:06.379Z,0.88
2019-05-10T01:18:35.113Z,0.80
2019-05-10T01:21:03.796Z,0.90
2019-05-10T01:23:32.491Z,0.90
2019-05-10T01:26:01.198Z,0.80
2019-05-10T01:28:29.593Z,0.85
2019-05-10T01:30:57.987Z,1.00
2019-05-10T01:33:26.722Z,0.88
2019-05-10T01:35:55.122Z,1.00
2019-05-10T01:38:23.511Z,1.00
2019-05-10T01:40:51.915Z,1.00
2019-05-10T01:43:20.667Z,0.85
2019-05-10T01:45:49.074Z,1.02
2019-05-10T01:48:17.820Z,1.10
2019-05-10T01:50:46.221Z,1.25
2019-05-10T01:53:14.882Z,1.50
2019-05-10T01:55:52.324Z,1.02
2019-05-10T01:58:13.788Z,1.20
2019-05-10T02:00:42.181Z,1.02
2019-05-10T02:03:10.868Z,0.90
2019-05-10T02:05:39.570Z,1.30
2019-05-10T02:08:07.955Z,1.22
2019-05-10T02:10:36.352Z,1.12
2019-05-10T02:13:04.736Z,1.07
2019-05-10T02:15:33.131Z,1.00
2019-05-10T02:18:01.510Z,0.90
2019-05-10T02:20:30.227Z,1.00
2019-05-10T02:22:58.620Z,1.12
2019-05-10T02:25:27.302Z,1.00
2019-05-10T02:27:55.684Z,1.17
2019-05-10T02:30:24.144Z,1.22
2019-05-10T02:32:52.838Z,1.10
2019-05-10T02:35:21.224Z,1.17
2019-05-10T02:37:49.914Z,0.95
2019-05-10T02:40:18.844Z,1.30
2019-05-10T02:42:47.247Z,1.22
2019-05-10T02:45:16.415Z,1.00
2019-05-10T02:47:45.068Z,1.10
2019-05-10T02:50:13.895Z,1.00
2019-05-10T02:52:42.284Z,1.10
2019-05-10T02:55:10.846Z,1.25
2019-05-10T02:57:39.716Z,1.10
2019-05-10T03:00:09.033Z,0.90
2019-05-10T03:02:37.774Z,0.90
2019-05-10T03:05:07.425Z,1.07
2019-05-10T03:07:38.081Z,1.30
2019-05-10T03:10:09.507Z,0.98
2019-05-10T03:12:40.953Z,0.95
2019-05-10T03:15:12.142Z,0.80
2019-05-10T03:17:41.874Z,0.82
2019-05-10T03:20:12.448Z,1.27
2019-05-10T03:22:44.003Z,0.90
2019-05-10T03:25:13.528Z,0.90
2019-05-10T03:27:42.005Z,0.85
2019-05-10T03:30:10.638Z,1.07
2019-05-10T03:32:39.042Z,1.02
2019-05-10T03:35:08.451Z,1.00
2019-05-10T03:37:37.175Z,0.70
2019-05-10T03:40:07.674Z,0.90
2019-05-10T03:42:36.313Z,1.32
2019-05-10T03:45:07.086Z,1.00
2019-05-10T03:47:35.472Z,1.00
2019-05-10T03:50:05.701Z,0.90
2019-05-10T03:52:34.367Z,1.22
2019-05-10T03:55:02.738Z,1.05
2019-05-10T03:57:31.438Z,1.20
2019-05-10T03:59:59.823Z,0.80
2019-05-10T04:02:28.301Z,1.10
2019-05-10T04:04:56.697Z,0.90
2019-05-10T04:07:25.151Z,1.02
2019-05-10T04:09:53.539Z,1.10
2019-05-10T04:12:21.943Z,1.15
2019-05-10T04:14:50.606Z,1.12
2019-05-10T04:17:19.001Z,0.72
2019-05-10T04:19:47.392Z,1.02
2019-05-10T04:22:15.786Z,0.70
2019-05-10T04:24:44.193Z,0.93
2019-05-10T04:27:30.595Z,1.30
2019-05-10T04:29:42.688Z,1.50
2019-05-10T04:32:11.146Z,0.90
2019-05-10T04:34:39.894Z,0.80
2019-05-10T04:37:08.576Z,0.80
2019-05-10T04:39:37.263Z,0.70
2019-05-10T04:42:05.964Z,0.68
2019-05-10T04:44:34.354Z,1.05
2019-05-10T04:47:02.740Z,0.70
2019-05-10T04:49:31.145Z,0.90
2019-05-10T04:51:59.561Z,0.78
2019-05-10T04:54:27.960Z,0.80
2019-05-10T04:56:59.989Z,0.60
2019-05-10T04:59:26.752Z,0.60
2019-05-10T05:01:55.139Z,0.88
2019-05-10T05:04:23.552Z,0.68
2019-05-10T05:06:51.939Z,0.62
2019-05-10T05:09:20.684Z,0.50
2019-05-10T05:11:49.074Z,0.62
2019-05-10T05:14:17.720Z,0.62
2019-05-10T05:16:46.116Z,0.35
2019-05-10T05:19:14.561Z,0.40
2019-05-10T05:21:43.267Z,0.40
2019-05-10T05:24:17.202Z,0.33
2019-05-10T05:26:41.764Z,0.20
2019-05-10T05:29:11.594Z,0.30
2019-05-10T05:31:39.972Z,0.20
2019-05-10T05:34:08.678Z,0.30
2019-05-10T05:36:37.359Z,0.30
2019-05-10T05:39:07.394Z,0.30
2019-05-10T05:41:47.866Z,0.20
2019-05-10T05:44:06.601Z,0.20
2019-05-10T05:46:35.283Z,0.10
2019-05-10T05:49:03.681Z,0.30
2019-05-10T05:51:32.074Z,0.30
2019-05-10T05:54:03.742Z,0.40
2019-05-10T05:56:30.609Z,0.45
2019-05-10T05:58:59.011Z,0.40
2019-05-10T06:01:29.601Z,0.30
2019-05-10T06:04:00.138Z,0.30
2019-05-10T06:06:27.642Z,0.47
2019-05-10T06:08:59.748Z,0.20
2019-05-10T06:11:29.728Z,0.30
2019-05-10T06:13:56.578Z,0.20
2019-05-10T06:16:24.960Z,0.30
2019-05-10T06:18:53.360Z,0.30
2019-05-10T06:21:24.513Z,0.20
2019-05-10T06:23:52.147Z,0.30
2019-05-10T06:26:28.025Z,0.37
2019-05-10T06:29:03.410Z,0.62
2019-05-10T06:31:20.925Z,0.30
2019-05-10T06:33:49.322Z,0.50
2019-05-10T06:36:18.028Z,0.45
2019-05-10T06:38:46.716Z,0.40
2019-05-10T06:41:16.724Z,0.35
2019-05-10T06:43:51.061Z,0.42
2019-05-10T06:46:16.151Z,0.40
2019-05-10T06:48:44.539Z,0.25
2019-05-10T06:51:12.944Z,0.45
2019-05-10T06:53:48.839Z,0.30
2019-05-10T06:56:11.735Z,0.37
2019-05-10T06:58:40.113Z,0.30
2019-05-10T07:01:08.808Z,0.40
2019-05-10T07:03:37.206Z,0.53
2019-05-10T07:06:05.952Z,0.40
2019-05-10T07:08:43.894Z,0.30
2019-05-10T07:11:04.933Z,0.70
2019-05-10T07:13:33.321Z,0.30
2019-05-10T07:16:03.476Z,0.50
2019-05-10T07:18:32.151Z,0.40
2019-05-10T07:21:06.145Z,0.40
2019-05-10T07:23:30.684Z,0.47
2019-05-10T07:25:59.345Z,0.30
2019-05-10T07:28:28.017Z,0.28
2019-05-10T07:30:56.423Z,0.42
2019-05-10T07:33:24.816Z,0.30
2019-05-10T07:35:53.221Z,0.28
2019-05-10T07:38:23.778Z,0.28
2019-05-10T07:40:51.738Z,0.30
2019-05-10T07:43:26.406Z,0.30
2019-05-10T07:45:50.588Z,0.30
2019-05-10T07:48:18.977Z,0.33
2019-05-10T07:50:49.385Z,0.30
2019-05-10T07:53:22.788Z,0.30
2019-05-10T07:55:47.886Z,0.23
2019-05-10T07:58:16.267Z,0.30
2019-05-10T08:00:46.743Z,0.40
2019-05-10T08:03:17.630Z,0.40
2019-05-10T08:05:46.405Z,0.30
2019-05-10T08:08:15.815Z,0.57
2019-05-10T08:10:44.220Z,0.47
2019-05-10T08:13:15.294Z,0.50
2019-05-10T08:15:43.004Z,0.42
2019-05-10T08:18:15.310Z,0.40
2019-05-10T08:20:50.306Z,0.40
2019-05-10T08:23:13.094Z,0.50
2019-05-10T08:25:46.846Z,0.40
2019-05-10T08:28:12.763Z,0.33
2019-05-10T08:30:52.358Z,0.33
2019-05-10T08:33:14.904Z,0.30
2019-05-10T08:35:46.080Z,0.60
2019-05-10T08:38:13.767Z,0.45
2019-05-10T08:40:43.110Z,1.10
2019-05-10T08:43:16.105Z,0.50
2019-05-10T08:45:44.961Z,0.40
2019-05-10T08:48:12.744Z,0.45
2019-05-10T08:50:53.366Z,0.35
2019-05-10T08:53:16.243Z,0.30
2019-05-10T08:55:43.248Z,0.30
2019-05-10T09:01:12.138Z,0.30
2019-05-10T09:03:28.677Z,0.20
2019-05-10T09:05:57.073Z,0.30
2019-05-10T09:08:28.555Z,0.30
2019-05-10T09:10:55.614Z,0.30
2019-05-10T09:13:28.843Z,0.35
2019-05-10T09:15:56.805Z,0.45
2019-05-10T09:18:24.266Z,0.45
2019-05-10T09:20:54.596Z,0.30
2019-05-10T09:23:23.615Z,0.50
2019-05-10T09:25:52.146Z,0.50
2019-05-10T09:28:21.938Z,0.40
2019-05-10T09:30:57.517Z,0.40
2019-05-10T09:33:22.387Z,0.30
2019-05-10T09:35:54.309Z,0.62
2019-05-10T09:38:22.152Z,0.50
2019-05-10T09:40:55.960Z,0.30
2019-05-10T09:43:24.073Z,0.35
2019-05-10T09:45:53.071Z,0.40
2019-05-10T09:48:22.874Z,0.40
2019-05-10T09:50:53.055Z,0.45
2019-05-10T09:53:25.616Z,0.40
2019-05-10T09:56:00.176Z,0.40
2019-05-10T09:58:22.509Z,0.40
2019-05-10T10:00:51.168Z,0.30
2019-05-10T10:03:19.828Z,0.30
2019-05-10T10:05:48.486Z,0.40
2019-05-10T10:08:17.650Z,0.40
2019-05-10T10:10:47.516Z,0.30
2019-05-10T10:13:33.949Z,0.30
2019-05-10T10:15:51.541Z,0.37
2019-05-10T10:18:21.331Z,0.40
2019-05-10T10:20:48.165Z,0.40
2019-05-10T10:23:17.356Z,0.30
2019-05-10T10:25:48.230Z,0.33
2019-05-10T10:28:17.503Z,0.50
2019-05-10T10:30:50.361Z,0.25
2019-05-10T10:33:24.885Z,0.40
2019-05-10T10:35:48.120Z,0.70
2019-05-10T10:38:17.934Z,0.33
2019-05-10T10:40:46.698Z,0.60
2019-05-10T10:43:15.109Z,0.40
2019-05-10T10:45:43.656Z,0.30
2019-05-10T10:48:13.028Z,0.40
2019-05-10T10:50:44.509Z,0.50
2019-05-10T10:53:11.984Z,0.60
2019-05-10T10:55:40.517Z,0.40
2019-05-10T10:58:10.748Z,0.45
2019-05-10T11:00:39.874Z,0.40
2019-05-10T11:03:08.271Z,0.37
2019-05-10T11:05:36.663Z,0.98
2019-05-10T11:08:05.062Z,0.40
2019-05-10T11:10:33.573Z,0.70
2019-05-10T11:13:10.704Z,0.40
2019-05-10T11:15:35.938Z,0.62
2019-05-10T11:18:02.225Z,0.42
2019-05-10T11:20:31.800Z,0.47
2019-05-10T11:23:00.832Z,0.55
2019-05-10T11:25:29.286Z,0.47
2019-05-10T11:28:00.935Z,0.30
2019-05-10T11:30:27.885Z,0.30
2019-05-10T11:32:56.286Z,0.47
2019-05-10T11:35:30.979Z,0.40
2019-05-10T11:37:54.823Z,0.40
2019-05-10T11:40:30.758Z,0.40
2019-05-10T11:42:53.843Z,0.60
2019-05-10T11:45:26.072Z,0.47
2019-05-10T11:47:54.324Z,0.40
2019-05-10T11:50:31.530Z,0.40
2019-05-10T11:52:53.872Z,0.40
2019-05-10T11:55:22.326Z,0.50
2019-05-10T11:58:02.061Z,0.40
2019-05-10T12:00:29.246Z,0.42
2019-05-10T12:05:26.431Z,0.33
2019-05-10T12:07:54.564Z,0.50
2019-05-10T12:10:25.707Z,0.50
2019-05-10T12:13:06.194Z,0.47
2019-05-10T12:15:25.347Z,0.30
2019-05-10T12:17:57.986Z,0.33
2019-05-10T12:20:26.914Z,0.60
2019-05-10T12:22:52.494Z,0.30
2019-05-10T12:25:37.844Z,0.30
2019-05-10T12:27:52.315Z,0.30
2019-05-10T12:30:21.624Z,0.30
2019-05-10T12:32:56.307Z,0.50
2019-05-10T12:35:21.334Z,0.62
2019-05-10T12:37:54.153Z,0.40
2019-05-10T12:40:23.878Z,0.47
2019-05-10T12:42:50.458Z,0.30
2019-05-10T12:45:22.884Z,0.30
2019-05-10T12:47:51.662Z,0.40
2019-05-10T12:50:20.501Z,0.50
2019-05-10T12:53:02.623Z,0.42
2019-05-10T12:55:19.286Z,0.45
2019-05-10T12:57:47.678Z,0.50
2019-05-10T13:00:17.477Z,0.40
2019-05-10T13:02:51.070Z,0.30
2019-05-10T13:05:16.355Z,0.40
2019-05-10T13:07:44.939Z,0.40
2019-05-10T13:10:13.847Z,0.42
2019-05-10T13:12:46.907Z,0.50
2019-05-10T13:15:13.228Z,0.40
2019-05-10T13:17:44.024Z,0.33
2019-05-10T13:20:12.384Z,0.40
2019-05-10T13:22:41.084Z,0.40
2019-05-10T13:25:10.227Z,0.30
2019-05-10T13:27:38.923Z,0.50
2019-05-10T13:30:08.252Z,0.20
2019-05-10T13:32:36.965Z,0.80
2019-05-10T13:35:06.985Z,1.20
2019-05-10T13:37:35.668Z,0.57
2019-05-10T13:40:08.390Z,0.20
2019-05-10T13:42:43.232Z,0.40
2019-05-10T13:45:07.565Z,0.30
2019-05-10T13:47:35.965Z,0.30
2019-05-10T13:50:06.205Z,0.30
2019-05-10T13:52:40.711Z,0.30
2019-05-10T13:55:06.678Z,0.17
2019-05-10T13:57:35.063Z,0.20
2019-05-10T14:00:05.448Z,0.10
2019-05-10T14:02:34.910Z,0.20
2019-05-10T14:05:04.124Z,0.25
2019-05-10T14:07:32.839Z,0.20
2019-05-10T14:10:01.212Z,0.20
2019-05-10T14:12:29.605Z,0.20
2019-05-10T14:15:02.607Z,1.02
2019-05-10T14:17:28.331Z,0.20
2019-05-10T14:19:57.057Z,0.28
2019-05-10T14:22:25.460Z,0.20
2019-05-10T14:24:58.904Z,0.13
2019-05-10T14:27:24.019Z,0.30
2019-05-10T14:29:52.733Z,0.20
2019-05-10T14:32:21.129Z,0.30
2019-05-10T14:34:49.520Z,0.23
2019-05-10T14:37:19.846Z,0.30
2019-05-10T14:39:48.415Z,0.30
2019-05-10T14:42:16.812Z,0.28
2019-05-10T14:44:45.206Z,0.20
2019-05-10T14:47:13.951Z,0.20
2019-05-10T14:49:46.907Z,0.15
2019-05-10T14:52:12.767Z,0.10
2019-05-10T14:54:44.109Z,0.30
2019-05-10T14:57:12.063Z,0.35
2019-05-10T14:59:40.445Z,0.20
2019-05-10T15:02:08.840Z,0.20
2019-05-10T15:04:46.611Z,0.20
2019-05-10T15:07:08.606Z,0.20
2019-05-10T15:09:37.744Z,0.40
2019-05-10T15:12:10.177Z,0.13
2019-05-10T15:14:36.872Z,0.33
2019-05-10T15:17:05.281Z,0.20
2019-05-10T15:19:33.669Z,0.20
2019-05-10T15:22:02.341Z,0.30
2019-05-10T15:24:31.208Z,0.28
2019-05-10T15:26:59.603Z,0.25
2019-05-10T15:29:28.273Z,0.30
2019-05-10T15:31:56.961Z,0.20
2019-05-10T15:34:25.346Z,0.35
2019-05-10T15:36:53.753Z,0.40
2019-05-10T15:39:23.017Z,0.20
2019-05-10T15:41:53.739Z,0.30
2019-05-10T15:44:30.264Z,0.30
2019-05-10T15:46:52.876Z,0.30
2019-05-10T15:49:24.354Z,0.20
2019-05-10T15:51:56.762Z,0.28
2019-05-10T15:54:21.796Z,0.20
2019-05-10T15:56:50.230Z,0.37
2019-05-10T15:59:21.241Z,0.30
2019-05-10T16:01:49.244Z,0.37
2019-05-10T16:04:17.634Z,0.20
2019-05-10T16:06:46.031Z,0.40
2019-05-10T16:09:19.140Z,0.30
2019-05-10T16:11:44.545Z,0.40
2019-05-10T16:14:12.937Z,0.50
2019-05-10T16:16:41.345Z,0.20
2019-05-10T16:19:12.917Z,0.28
2019-05-10T16:21:40.114Z,0.40
2019-05-10T16:24:08.522Z,0.30
2019-05-10T16:26:37.179Z,0.33
2019-05-10T16:29:05.865Z,0.50
2019-05-10T16:31:34.257Z,0.50
2019-05-10T16:34:03.642Z,0.30
2019-05-10T16:36:32.333Z,0.50
2019-05-10T16:39:01.980Z,0.42
2019-05-10T16:41:30.511Z,0.30
2019-05-10T16:44:00.170Z,0.30
2019-05-10T16:46:29.025Z,0.40
2019-05-10T16:48:57.920Z,0.50
2019-05-10T16:51:26.313Z,0.60
2019-05-10T16:53:54.716Z,0.53
2019-05-10T16:56:23.108Z,0.50
2019-05-10T16:58:53.139Z,0.40
2019-05-10T17:01:24.966Z,0.50
2019-05-10T17:03:59.674Z,0.42
2019-05-10T17:06:21.879Z,0.50
2019-05-10T17:08:50.273Z,0.30
2019-05-10T17:11:18.837Z,0.37
2019-05-10T17:13:47.548Z,0.40
2019-05-10T17:16:18.511Z,0.40
2019-05-10T17:18:50.050Z,0.53
2019-05-10T17:21:16.179Z,0.40
2019-05-10T17:23:46.889Z,0.50
2019-05-10T17:26:14.708Z,0.30
2019-05-10T17:28:43.347Z,0.50
2019-05-10T17:31:12.034Z,0.40
2019-05-10T17:33:42.655Z,0.60
2019-05-10T17:36:14.509Z,0.40
2019-05-10T17:38:41.389Z,0.40
2019-05-10T17:41:10.075Z,0.40
2019-05-10T17:43:40.011Z,0.50
2019-05-10T17:46:12.775Z,0.40
2019-05-10T17:48:40.728Z,0.40
2019-05-10T17:51:09.001Z,0.40
2019-05-10T17:53:37.415Z,0.45
2019-05-10T17:56:05.797Z,0.40
2019-05-10T17:58:35.034Z,0.40
2019-05-10T18:01:03.758Z,0.60
2019-05-10T18:03:32.494Z,0.40
2019-05-10T18:06:01.244Z,0.60
2019-05-10T18:08:29.704Z,0.45
2019-05-10T18:11:03.768Z,0.40
2019-05-10T18:13:28.504Z,0.30
2019-05-10T18:15:56.910Z,0.35
2019-05-10T18:18:25.583Z,0.40
2019-05-10T18:20:54.000Z,0.30
2019-05-10T18:23:23.010Z,0.35
2019-05-10T18:25:57.803Z,0.30
2019-05-10T18:28:22.032Z,0.42
2019-05-10T18:30:50.459Z,0.47
2019-05-10T18:33:18.935Z,0.47
2019-05-10T18:35:52.212Z,0.60
2019-05-10T18:38:17.739Z,0.50
2019-05-10T18:40:46.140Z,0.40
2019-05-10T18:43:14.531Z,0.70
2019-05-10T18:48:12.271Z,1.00
2019-05-10T18:50:45.442Z,0.70
2019-05-10T18:53:11.133Z,0.95
2019-05-10T18:55:39.496Z,1.05
2019-05-10T18:58:08.147Z,1.00
2019-05-10T19:00:40.137Z,0.98
2019-05-10T19:03:07.115Z,0.85
2019-05-10T19:05:35.852Z,1.87
2019-05-10T19:08:05.975Z,1.60
2019-05-10T19:10:34.433Z,2.05
2019-05-10T19:13:05.076Z,1.72
2019-05-10T19:15:33.251Z,1.12
2019-05-10T19:18:01.645Z,1.65
2019-05-10T19:20:30.042Z,1.98
2019-05-10T19:22:58.709Z,1.22
2019-05-10T19:25:27.115Z,1.40
2019-05-10T19:27:55.497Z,1.10
2019-05-10T19:30:24.254Z,0.90
2019-05-10T19:32:56.507Z,1.20
2019-05-10T19:35:22.757Z,1.00
2019-05-10T19:37:51.141Z,0.80
2019-05-10T19:40:19.830Z,0.80
2019-05-10T19:42:49.532Z,1.10
2019-05-10T19:45:21.091Z,0.90
2019-05-10T19:47:49.853Z,0.82
2019-05-10T19:50:24.335Z,1.07
2019-05-10T19:52:49.279Z,0.82
2019-05-10T19:55:19.611Z,0.90
2019-05-10T19:57:49.449Z,0.80
2019-05-10T20:00:18.457Z,0.75
2019-05-10T20:02:46.839Z,0.85
2019-05-10T20:05:15.303Z,0.90
2019-05-10T20:07:46.213Z,0.90
2019-05-10T20:10:14.216Z,1.00
2019-05-10T20:12:42.883Z,0.90
2019-05-10T20:15:11.773Z,0.88
2019-05-10T20:17:40.481Z,1.42
2019-05-10T20:20:10.296Z,1.40
2019-05-10T20:22:38.709Z,1.35
2019-05-10T20:25:07.545Z,1.27
2019-05-10T20:27:35.933Z,1.70
2019-05-10T20:30:07.260Z,1.77
2019-05-10T20:32:36.173Z,1.27
2019-05-10T20:35:06.767Z,1.20
2019-05-10T20:37:35.173Z,1.27
2019-05-10T20:40:04.238Z,1.22
2019-05-10T20:42:32.640Z,1.80
2019-05-10T20:45:07.662Z,1.62
2019-05-10T20:47:31.457Z,1.57
2019-05-10T20:50:00.155Z,1.60
2019-05-10T20:52:28.558Z,1.40
2019-05-10T20:54:57.210Z,1.70
2019-05-10T20:57:25.609Z,1.30
2019-05-10T20:59:53.999Z,1.62
2019-05-10T21:02:22.402Z,1.40
2019-05-10T21:04:50.798Z,1.27
2019-05-10T21:07:19.515Z,2.10
2019-05-10T21:09:47.913Z,1.80
2019-05-10T21:12:16.323Z,1.50
2019-05-10T21:14:45.068Z,1.20
2019-05-10T21:17:13.466Z,1.30
2019-05-10T21:19:41.857Z,1.00
2019-05-10T21:22:10.270Z,0.98
2019-05-10T21:24:38.990Z,1.15
2019-05-10T21:27:07.681Z,1.07
2019-05-10T21:29:36.064Z,0.93
2019-05-10T21:32:04.805Z,1.15
2019-05-10T21:34:33.277Z,1.17
2019-05-10T21:37:01.681Z,1.20
2019-05-10T21:39:30.106Z,1.07
2019-05-10T21:41:58.561Z,1.00
2019-05-10T21:44:26.937Z,1.10
2019-05-10T21:46:55.341Z,1.32
2019-05-10T21:49:23.772Z,0.82
2019-05-10T21:51:52.212Z,1.40
2019-05-10T21:54:20.645Z,1.07
2019-05-10T21:56:49.079Z,1.22
2019-05-10T21:59:17.497Z,1.40
2019-05-10T22:01:46.009Z,1.27
2019-05-10T22:04:14.736Z,1.40
2019-05-10T22:06:43.159Z,1.10
2019-05-10T22:09:11.860Z,1.15
2019-05-10T22:11:40.281Z,1.40
2019-05-10T22:14:08.730Z,1.30
2019-05-10T22:16:37.147Z,1.40
2019-05-10T22:19:05.585Z,1.30
2019-05-10T22:21:34.313Z,1.00
2019-05-10T22:24:02.775Z,1.55
2019-05-10T22:26:31.203Z,1.30
2019-05-10T22:28:59.657Z,1.30
2019-05-10T22:31:28.092Z,1.40
2019-05-10T22:33:56.820Z,1.65
2019-05-10T22:36:25.240Z,1.95
2019-05-10T22:39:06.458Z,1.70
2019-05-10T22:41:24.103Z,1.90
2019-05-10T22:43:52.903Z,1.80
2019-05-10T22:46:21.327Z,1.80
2019-05-10T22:48:50.064Z,1.82
2019-05-10T22:51:18.849Z,1.70
2019-05-10T22:53:59.064Z,1.70
2019-05-10T22:56:17.443Z,1.77
2019-05-10T22:58:45.872Z,1.90
2019-05-10T23:01:14.301Z,2.52
2019-05-10T23:03:43.108Z,2.35
2019-05-10T23:06:12.074Z,1.82
2019-05-10T23:08:40.512Z,1.90
2019-05-10T23:11:09.274Z,1.60
2019-05-10T23:13:37.710Z,1.70
2019-05-10T23:16:06.431Z,1.80
2019-05-10T23:18:34.869Z,1.50
2019-05-10T23:21:03.297Z,1.70
2019-05-10T23:23:31.736Z,1.45
2019-05-10T23:26:00.168Z,1.32
2019-05-10T23:28:28.946Z,1.40
2019-05-10T23:30:57.375Z,1.65
2019-05-10T23:33:25.813Z,1.40
2019-05-10T23:35:54.253Z,1.50
2019-05-10T23:38:22.694Z,1.40
2019-05-10T23:40:51.120Z,1.30
2019-05-10T23:43:19.847Z,1.40
2019-05-10T23:45:48.277Z,1.07
2019-05-10T23:48:16.721Z,1.40
2019-05-10T23:50:45.152Z,1.30
2019-05-10T23:53:14.156Z,1.52
2019-05-10T23:55:42.577Z,1.30
2019-05-10T23:58:11.016Z,1.20
